sensor_id;sensor_type;location;lat;lon;timestamp;pressure;altitude;pressure_sealevel;temperature;humidity
78745;BME280;68064;53.100;8.824;2023-04-24T00:00:40;100011.91;;;11.68;76.17
78745;BME280;68064;53.100;8.824;2023-04-24T00:01:44;100015.34;;;11.68;71.92
78745;BME280;68064;53.100;8.824;2023-04-24T00:02:45;100018.56;;;11.61;75.31
78745;BME280;68064;53.100;8.824;2023-04-24T00:03:48;100019.50;;;11.63;72.86
78745;BME280;68064;53.100;8.824;2023-04-24T00:04:52;100015.25;;;11.64;74.46
78745;BME280;68064;53.100;8.824;2023-04-24T00:05:55;100013.63;;;11.67;70.00
78745;BME280;68064;53.100;8.824;2023-04-24T00:06:56;100005.06;;;11.68;73.06
78745;BME280;68064;53.100;8.824;2023-04-24T00:07:57;100006.81;;;11.69;70.46
78745;BME280;68064;53.100;8.824;2023-04-24T00:08:58;100017.13;;;11.71;69.35
78745;BME280;68064;53.100;8.824;2023-04-24T00:09:59;100008.53;;;11.69;69.77
78745;BME280;68064;53.100;8.824;2023-04-24T00:11:01;100010.38;;;11.73;72.14
78745;BME280;68064;53.100;8.824;2023-04-24T00:12:03;100002.84;;;11.81;71.42
78745;BME280;68064;53.100;8.824;2023-04-24T00:13:04;100007.91;;;11.78;69.79
78745;BME280;68064;53.100;8.824;2023-04-24T00:14:05;100006.19;;;11.77;68.35
78745;BME280;68064;53.100;8.824;2023-04-24T00:15:07;100002.75;;;11.76;68.88
78745;BME280;68064;53.100;8.824;2023-04-24T00:16:09;99994.16;;;11.74;68.89
78745;BME280;68064;53.100;8.824;2023-04-24T00:17:10;100002.50;;;11.68;75.60
78745;BME280;68064;53.100;8.824;2023-04-24T00:18:11;99997.63;;;11.76;72.85
78745;BME280;68064;53.100;8.824;2023-04-24T00:19:14;99996.75;;;11.76;69.69
78745;BME280;68064;53.100;8.824;2023-04-24T00:20:15;99996.91;;;11.82;68.63
78745;BME280;68064;53.100;8.824;2023-04-24T00:21:16;99993.53;;;11.84;73.12
78745;BME280;68064;53.100;8.824;2023-04-24T00:22:17;99991.78;;;11.82;68.97
78745;BME280;68064;53.100;8.824;2023-04-24T00:23:19;100002.75;;;11.76;75.22
78745;BME280;68064;53.100;8.824;2023-04-24T00:24:20;99997.63;;;11.76;73.02
78745;BME280;68064;53.100;8.824;2023-04-24T00:25:22;99993.81;;;11.62;77.59
78745;BME280;68064;53.100;8.824;2023-04-24T00:26:25;99994.81;;;11.68;71.40
78745;BME280;68064;53.100;8.824;2023-04-24T00:27:29;99995.81;;;11.72;69.94
78745;BME280;68064;53.100;8.824;2023-04-24T00:28:31;99993.63;;;11.54;76.38
78745;BME280;68064;53.100;8.824;2023-04-24T00:29:32;100000.13;;;11.75;69.72
78745;BME280;68064;53.100;8.824;2023-04-24T00:30:35;99997.66;;;11.78;69.73
78745;BME280;68064;53.100;8.824;2023-04-24T00:31:37;100001.13;;;11.80;69.86
78745;BME280;68064;53.100;8.824;2023-04-24T00:32:38;99991.78;;;11.82;69.38
78745;BME280;68064;53.100;8.824;2023-04-24T00:33:41;100006.19;;;11.77;70.47
78745;BME280;68064;53.100;8.824;2023-04-24T00:34:44;100003.66;;;11.78;69.94
78745;BME280;68064;53.100;8.824;2023-04-24T00:35:45;99994.31;;;11.80;69.67
78745;BME280;68064;53.100;8.824;2023-04-24T00:36:46;99999.44;;;11.80;70.43
78745;BME280;68064;53.100;8.824;2023-04-24T00:37:47;99995.78;;;11.71;71.55
78745;BME280;68064;53.100;8.824;2023-04-24T00:38:49;99999.00;;;11.65;74.71
78745;BME280;68064;53.100;8.824;2023-04-24T00:39:52;99986.19;;;11.65;73.81
78745;BME280;68064;53.100;8.824;2023-04-24T00:40:54;99988.00;;;11.69;70.49
78745;BME280;68064;53.100;8.824;2023-04-24T00:41:55;100003.25;;;11.63;72.00
78745;BME280;68064;53.100;8.824;2023-04-24T00:42:58;99994.06;;;11.71;72.02
78745;BME280;68064;53.100;8.824;2023-04-24T00:44:00;99987.97;;;11.67;73.39
78745;BME280;68064;53.100;8.824;2023-04-24T00:45:02;100006.81;;;11.69;71.62
78745;BME280;68064;53.100;8.824;2023-04-24T00:46:03;99997.63;;;11.76;69.68
78745;BME280;68064;53.100;8.824;2023-04-24T00:47:05;99990.81;;;11.78;68.92
78745;BME280;68064;53.100;8.824;2023-04-24T00:48:07;100007.63;;;11.67;71.91
78745;BME280;68064;53.100;8.824;2023-04-24T00:49:12;100021.34;;;11.69;71.37
78745;BME280;68064;53.100;8.824;2023-04-24T00:50:16;100002.59;;;11.70;69.06
78745;BME280;68064;53.100;8.824;2023-04-24T00:51:17;99998.16;;;11.64;69.93
78745;BME280;68064;53.100;8.824;2023-04-24T00:52:19;99994.81;;;11.68;70.17
78745;BME280;68064;53.100;8.824;2023-04-24T00:53:21;99999.09;;;11.68;69.53
78745;BME280;68064;53.100;8.824;2023-04-24T00:54:22;100015.97;;;11.60;71.58
78745;BME280;68064;53.100;8.824;2023-04-24T00:55:26;99997.09;;;11.56;70.24
78745;BME280;68064;53.100;8.824;2023-04-24T00:56:28;99989.69;;;11.68;68.37
78745;BME280;68064;53.100;8.824;2023-04-24T00:57:30;99987.84;;;11.63;70.86
78745;BME280;68064;53.100;8.824;2023-04-24T00:58:31;99999.09;;;11.68;69.12
78745;BME280;68064;53.100;8.824;2023-04-24T00:59:33;99995.00;;;11.75;68.66
78745;BME280;68064;53.100;8.824;2023-04-24T01:00:37;99995.94;;;11.77;67.29
78745;BME280;68064;53.100;8.824;2023-04-24T01:01:39;99991.59;;;11.74;68.68
78745;BME280;68064;53.100;8.824;2023-04-24T01:02:42;99993.94;;;11.66;68.65
78745;BME280;68064;53.100;8.824;2023-04-24T01:03:44;99992.25;;;11.67;68.56
78745;BME280;68064;53.100;8.824;2023-04-24T01:04:45;99986.81;;;11.55;70.62
78745;BME280;68064;53.100;8.824;2023-04-24T01:05:50;99991.81;;;11.50;70.15
78745;BME280;68064;53.100;8.824;2023-04-24T01:06:52;99987.72;;;11.58;68.48
78745;BME280;68064;53.100;8.824;2023-04-24T01:07:56;99977.59;;;11.63;67.58
78745;BME280;68064;53.100;8.824;2023-04-24T01:08:58;99990.50;;;11.66;66.95
78745;BME280;68064;53.100;8.824;2023-04-24T01:09:59;99987.56;;;11.51;69.08
78745;BME280;68064;53.100;8.824;2023-04-24T01:11:03;99987.56;;;11.52;67.67
78745;BME280;68064;53.100;8.824;2023-04-24T01:12:04;100001.94;;;11.46;69.28
78745;BME280;68064;53.100;8.824;2023-04-24T01:13:07;99986.81;;;11.55;67.16
78745;BME280;68064;53.100;8.824;2023-04-24T01:14:11;99984.28;;;11.56;67.34
78745;BME280;68064;53.100;8.824;2023-04-24T01:15:12;99982.38;;;11.49;67.80
78745;BME280;68064;53.100;8.824;2023-04-24T01:16:13;99983.03;;;11.42;69.98
78745;BME280;68064;53.100;8.824;2023-04-24T01:17:15;99977.09;;;11.43;69.01
78745;BME280;68064;53.100;8.824;2023-04-24T01:18:16;99989.09;;;11.44;69.55
78745;BME280;68064;53.100;8.824;2023-04-24T01:19:18;99980.41;;;11.39;68.57
78745;BME280;68064;53.100;8.824;2023-04-24T01:20:20;99983.03;;;11.41;68.80
78745;BME280;68064;53.100;8.824;2023-04-24T01:21:23;99980.59;;;11.47;66.91
78745;BME280;68064;53.100;8.824;2023-04-24T01:22:32;99979.63;;;11.42;69.77
78745;BME280;68064;53.100;8.824;2023-04-24T01:23:33;99968.66;;;11.47;67.41
78745;BME280;68064;53.100;8.824;2023-04-24T01:24:34;99979.38;;;11.33;68.64
78745;BME280;68064;53.100;8.824;2023-04-24T01:25:36;99979.44;;;11.34;70.41
78745;BME280;68064;53.100;8.824;2023-04-24T01:26:40;99978.63;;;11.37;67.86
78745;BME280;68064;53.100;8.824;2023-04-24T01:27:44;99968.88;;;11.24;68.77
78745;BME280;68064;53.100;8.824;2023-04-24T01:28:49;99972.47;;;11.30;69.01
78745;BME280;68064;53.100;8.824;2023-04-24T01:29:51;99979.28;;;11.30;69.00
78745;BME280;68064;53.100;8.824;2023-04-24T01:30:52;99962.81;;;11.20;67.67
78745;BME280;68064;53.100;8.824;2023-04-24T01:31:54;99970.63;;;11.25;69.09
78745;BME280;68064;53.100;8.824;2023-04-24T01:33:01;99973.13;;;11.22;69.06
78745;BME280;68064;53.100;8.824;2023-04-24T01:34:02;99976.41;;;11.16;70.18
78745;BME280;68064;53.100;8.824;2023-04-24T01:35:05;99964.63;;;11.24;68.03
78745;BME280;68064;53.100;8.824;2023-04-24T01:36:10;99962.81;;;11.20;69.59
78745;BME280;68064;53.100;8.824;2023-04-24T01:37:14;99965.28;;;11.15;69.57
78745;BME280;68064;53.100;8.824;2023-04-24T01:38:19;99960.22;;;11.19;68.98
78745;BME280;68064;53.100;8.824;2023-04-24T01:39:20;99969.59;;;11.18;71.16
78745;BME280;68064;53.100;8.824;2023-04-24T01:40:27;99972.97;;;11.17;69.88
78745;BME280;68064;53.100;8.824;2023-04-24T01:41:28;99960.34;;;11.23;67.75
78745;BME280;68064;53.100;8.824;2023-04-24T01:42:30;99951.88;;;11.26;70.76
78745;BME280;68064;53.100;8.824;2023-04-24T01:43:31;99955.47;;;11.32;68.19
78745;BME280;68064;53.100;8.824;2023-04-24T01:44:33;99952.03;;;11.32;66.33
78745;BME280;68064;53.100;8.824;2023-04-24T01:45:39;99947.00;;;11.35;66.53
78745;BME280;68064;53.100;8.824;2023-04-24T01:46:40;99966.66;;;11.36;67.60
78745;BME280;68064;53.100;8.824;2023-04-24T01:47:42;99957.09;;;11.30;67.99
78745;BME280;68064;53.100;8.824;2023-04-24T01:48:49;99959.50;;;11.24;70.86
78745;BME280;68064;53.100;8.824;2023-04-24T01:49:51;99959.41;;;11.20;69.58
78745;BME280;68064;53.100;8.824;2023-04-24T01:50:55;99952.75;;;11.26;67.49
78745;BME280;68064;53.100;8.824;2023-04-24T01:51:57;99955.91;;;11.18;70.27
78745;BME280;68064;53.100;8.824;2023-04-24T01:52:58;99953.53;;;11.24;67.85
78745;BME280;68064;53.100;8.824;2023-04-24T01:54:01;99952.53;;;11.19;69.66
78745;BME280;68064;53.100;8.824;2023-04-24T01:55:02;99952.75;;;11.26;67.60
78745;BME280;68064;53.100;8.824;2023-04-24T01:56:04;99950.13;;;11.25;66.70
78745;BME280;68064;53.100;8.824;2023-04-24T01:57:05;99950.13;;;11.25;67.01
78745;BME280;68064;53.100;8.824;2023-04-24T01:58:07;99948.53;;;11.28;67.96
78745;BME280;68064;53.100;8.824;2023-04-24T01:59:11;99958.53;;;11.19;68.15
78745;BME280;68064;53.100;8.824;2023-04-24T02:00:12;99944.13;;;11.24;67.32
78745;BME280;68064;53.100;8.824;2023-04-24T02:01:17;99948.28;;;11.19;68.51
78745;BME280;68064;53.100;8.824;2023-04-24T02:02:20;99948.28;;;11.19;67.82
78745;BME280;68064;53.100;8.824;2023-04-24T02:03:23;99946.78;;;11.27;66.28
78745;BME280;68064;53.100;8.824;2023-04-24T02:04:24;99945.09;;;11.28;67.10
78745;BME280;68064;53.100;8.824;2023-04-24T02:05:28;99944.88;;;11.20;67.34
78745;BME280;68064;53.100;8.824;2023-04-24T02:06:31;99948.22;;;11.16;67.37
78745;BME280;68064;53.100;8.824;2023-04-24T02:07:32;99949.09;;;11.17;69.83
78745;BME280;68064;53.100;8.824;2023-04-24T02:08:33;99948.41;;;11.24;66.56
78745;BME280;68064;53.100;8.824;2023-04-24T02:09:36;99946.53;;;11.17;68.29
78745;BME280;68064;53.100;8.824;2023-04-24T02:10:39;99942.88;;;11.08;69.28
78745;BME280;68064;53.100;8.824;2023-04-24T02:11:40;99953.88;;;11.04;68.18
78745;BME280;68064;53.100;8.824;2023-04-24T02:12:44;99954.03;;;11.10;69.42
78745;BME280;68064;53.100;8.824;2023-04-24T02:13:45;99958.16;;;11.05;69.72
78745;BME280;68064;53.100;8.824;2023-04-24T02:14:46;99942.00;;;11.08;69.27
78745;BME280;68064;53.100;8.824;2023-04-24T02:15:47;99947.75;;;10.99;70.43
78745;BME280;68064;53.100;8.824;2023-04-24T02:16:48;99943.84;;;11.12;67.37
78745;BME280;68064;53.100;8.824;2023-04-24T02:17:49;99947.50;;;11.22;69.12
78745;BME280;68064;53.100;8.824;2023-04-24T02:18:50;99931.09;;;11.15;67.29
78745;BME280;68064;53.100;8.824;2023-04-24T02:19:55;99949.19;;;11.21;66.78
78745;BME280;68064;53.100;8.824;2023-04-24T02:20:58;99944.06;;;11.21;67.35
78745;BME280;68064;53.100;8.824;2023-04-24T02:22:02;99945.88;;;11.25;68.77
78745;BME280;68064;53.100;8.824;2023-04-24T02:23:03;99951.75;;;11.21;67.40
78745;BME280;68064;53.100;8.824;2023-04-24T02:24:05;99945.72;;;11.19;66.84
78745;BME280;68064;53.100;8.824;2023-04-24T02:25:08;99944.88;;;11.20;69.59
78745;BME280;68064;53.100;8.824;2023-04-24T02:26:10;99941.34;;;11.15;68.96
78745;BME280;68064;53.100;8.824;2023-04-24T02:27:11;99951.56;;;11.13;68.05
78745;BME280;68064;53.100;8.824;2023-04-24T02:28:13;99950.81;;;11.18;67.83
78745;BME280;68064;53.100;8.824;2023-04-24T02:29:14;99949.19;;;11.21;67.37
78745;BME280;68064;53.100;8.824;2023-04-24T02:30:15;99959.50;;;11.23;66.96
78745;BME280;68064;53.100;8.824;2023-04-24T02:31:15;99948.44;;;11.25;66.87
78745;BME280;68064;53.100;8.824;2023-04-24T02:32:17;99955.34;;;11.28;66.85
78745;BME280;68064;53.100;8.824;2023-04-24T02:33:18;99954.31;;;11.21;67.85
78745;BME280;68064;53.100;8.824;2023-04-24T02:34:19;99954.38;;;11.23;69.18
78745;BME280;68064;53.100;8.824;2023-04-24T02:35:20;99957.63;;;11.17;68.87
78745;BME280;68064;53.100;8.824;2023-04-24T02:36:21;99968.56;;;11.10;70.17
78745;BME280;68064;53.100;8.824;2023-04-24T02:37:23;99960.16;;;11.15;68.87
78745;BME280;68064;53.100;8.824;2023-04-24T02:38:23;99952.53;;;11.19;69.90
78745;BME280;68064;53.100;8.824;2023-04-24T02:39:25;99951.22;;;11.01;71.77
78745;BME280;68064;53.100;8.824;2023-04-24T02:40:27;99957.63;;;11.17;67.78
78745;BME280;68064;53.100;8.824;2023-04-24T02:41:28;99958.22;;;11.07;70.34
78745;BME280;68064;53.100;8.824;2023-04-24T02:42:30;99943.84;;;11.12;67.41
78745;BME280;68064;53.100;8.824;2023-04-24T02:43:31;99951.31;;;11.04;70.58
78745;BME280;68064;53.100;8.824;2023-04-24T02:44:32;99951.59;;;11.15;67.34
78745;BME280;68064;53.100;8.824;2023-04-24T02:45:33;99944.69;;;11.12;69.68
78745;BME280;68064;53.100;8.824;2023-04-24T02:46:34;99954.72;;;11.03;71.16
78745;BME280;68064;53.100;8.824;2023-04-24T02:47:38;99950.84;;;11.19;67.76
78745;BME280;68064;53.100;8.824;2023-04-24T02:48:39;99955.97;;;11.19;67.77
78745;BME280;68064;53.100;8.824;2023-04-24T02:49:46;99930.06;;;11.07;67.42
78745;BME280;68064;53.100;8.824;2023-04-24T02:50:47;99955.59;;;11.04;71.40
78745;BME280;68064;53.100;8.824;2023-04-24T02:51:51;99958.22;;;11.07;70.15
78745;BME280;68064;53.100;8.824;2023-04-24T02:52:54;99949.78;;;11.11;68.49
78745;BME280;68064;53.100;8.824;2023-04-24T02:53:55;99952.41;;;11.14;68.25
78745;BME280;68064;53.100;8.824;2023-04-24T02:54:57;99951.59;;;11.15;67.52
78745;BME280;68064;53.100;8.824;2023-04-24T02:56:01;99943.78;;;11.10;69.82
78745;BME280;68064;53.100;8.824;2023-04-24T02:57:03;99948.06;;;11.10;70.01
78745;BME280;68064;53.100;8.824;2023-04-24T02:58:04;99948.06;;;11.10;68.07
78745;BME280;68064;53.100;8.824;2023-04-24T02:59:05;99938.63;;;11.09;68.47
78745;BME280;68064;53.100;8.824;2023-04-24T03:00:08;99946.47;;;11.15;67.31
78745;BME280;68064;53.100;8.824;2023-04-24T03:01:12;99941.22;;;11.10;67.25
78745;BME280;68064;53.100;8.824;2023-04-24T03:02:16;99928.16;;;11.00;71.09
78745;BME280;68064;53.100;8.824;2023-04-24T03:03:20;99950.53;;;11.07;69.84
78745;BME280;68064;53.100;8.824;2023-04-24T03:04:21;99946.16;;;11.03;68.99
78745;BME280;68064;53.100;8.824;2023-04-24T03:05:22;99947.97;;;11.07;68.74
78745;BME280;68064;53.100;8.824;2023-04-24T03:06:25;99933.28;;;11.01;68.89
78745;BME280;68064;53.100;8.824;2023-04-24T03:07:27;99944.41;;;11.02;68.03
78745;BME280;68064;53.100;8.824;2023-04-24T03:08:31;99947.94;;;11.05;68.30
78745;BME280;68064;53.100;8.824;2023-04-24T03:09:32;99947.59;;;10.93;70.98
78745;BME280;68064;53.100;8.824;2023-04-24T03:10:32;99947.91;;;11.04;68.05
78745;BME280;68064;53.100;8.824;2023-04-24T03:11:35;99941.84;;;11.02;69.39
78745;BME280;68064;53.100;8.824;2023-04-24T03:12:36;99949.44;;;10.99;69.17
78745;BME280;68064;53.100;8.824;2023-04-24T03:13:38;99940.09;;;10.99;68.63
78745;BME280;68064;53.100;8.824;2023-04-24T03:14:39;99949.34;;;10.94;68.96
78745;BME280;68064;53.100;8.824;2023-04-24T03:15:40;99945.94;;;10.95;69.33
78745;BME280;68064;53.100;8.824;2023-04-24T03:16:41;99944.31;;;10.97;69.22
78745;BME280;68064;53.100;8.824;2023-04-24T03:17:42;99954.41;;;10.93;69.04
78745;BME280;68064;53.100;8.824;2023-04-24T03:18:43;99946.81;;;10.96;67.43
78745;BME280;68064;53.100;8.824;2023-04-24T03:19:44;99951.19;;;11.00;68.28
78745;BME280;68064;53.100;8.824;2023-04-24T03:20:45;99944.38;;;11.00;68.52
78745;BME280;68064;53.100;8.824;2023-04-24T03:21:46;99958.97;;;11.03;67.44
78745;BME280;68064;53.100;8.824;2023-04-24T03:22:48;99952.72;;;10.93;69.95
78745;BME280;68064;53.100;8.824;2023-04-24T03:23:54;99950.09;;;10.90;69.13
78745;BME280;68064;53.100;8.824;2023-04-24T03:25:00;99947.53;;;10.92;68.69
78745;BME280;68064;53.100;8.824;2023-04-24T03:26:02;99947.72;;;10.98;67.93
78745;BME280;68064;53.100;8.824;2023-04-24T03:27:04;99952.72;;;10.93;69.07
78745;BME280;68064;53.100;8.824;2023-04-24T03:28:05;99946.72;;;10.93;68.79
78745;BME280;68064;53.100;8.824;2023-04-24T03:29:06;99956.00;;;10.89;69.58
78745;BME280;68064;53.100;8.824;2023-04-24T03:30:08;99949.22;;;10.91;69.62
78745;BME280;68064;53.100;8.824;2023-04-24T03:31:09;99941.59;;;10.93;67.78
78745;BME280;68064;53.100;8.824;2023-04-24T03:32:11;99946.56;;;10.87;68.19
78745;BME280;68064;53.100;8.824;2023-04-24T03:33:15;99949.22;;;10.91;69.74
78745;BME280;68064;53.100;8.824;2023-04-24T03:34:18;99944.75;;;10.83;70.32
78745;BME280;68064;53.100;8.824;2023-04-24T03:35:19;99947.44;;;10.87;67.34
78745;BME280;68064;53.100;8.824;2023-04-24T03:36:20;99944.16;;;10.93;68.65
78745;BME280;68064;53.100;8.824;2023-04-24T03:37:21;99948.31;;;10.88;71.15
78745;BME280;68064;53.100;8.824;2023-04-24T03:38:23;99942.22;;;10.84;70.79
78745;BME280;68064;53.100;8.824;2023-04-24T03:39:24;99944.91;;;10.89;70.61
78745;BME280;68064;53.100;8.824;2023-04-24T03:40:25;99941.59;;;10.93;67.66
78745;BME280;68064;53.100;8.824;2023-04-24T03:41:26;99940.81;;;10.95;67.74
78745;BME280;68064;53.100;8.824;2023-04-24T03:42:29;99938.25;;;10.95;70.15
78745;BME280;68064;53.100;8.824;2023-04-24T03:43:30;99937.19;;;10.87;70.06
78745;BME280;68064;53.100;8.824;2023-04-24T03:44:31;99939.69;;;10.84;70.24
78745;BME280;68064;53.100;8.824;2023-04-24T03:45:32;99939.94;;;10.95;67.19
78745;BME280;68064;53.100;8.824;2023-04-24T03:46:33;99940.97;;;11.01;67.11
78745;BME280;68064;53.100;8.824;2023-04-24T03:47:34;99938.09;;;10.89;69.46
78745;BME280;68064;53.100;8.824;2023-04-24T03:48:35;99947.53;;;10.90;69.43
78745;BME280;68064;53.100;8.824;2023-04-24T03:49:37;99937.34;;;10.93;67.54
78745;BME280;68064;53.100;8.824;2023-04-24T03:50:38;99945.91;;;10.94;66.70
78745;BME280;68064;53.100;8.824;2023-04-24T03:51:39;99940.78;;;10.94;67.22
78745;BME280;68064;53.100;8.824;2023-04-24T03:52:42;99945.84;;;10.92;67.78
78745;BME280;68064;53.100;8.824;2023-04-24T03:53:43;99941.38;;;10.85;70.53
78745;BME280;68064;53.100;8.824;2023-04-24T03:54:44;99948.16;;;10.83;67.57
78745;BME280;68064;53.100;8.824;2023-04-24T03:55:45;99951.69;;;10.87;68.35
78745;BME280;68064;53.100;8.824;2023-04-24T03:56:47;99956.00;;;10.88;67.75
78745;BME280;68064;53.100;8.824;2023-04-24T03:57:51;99957.75;;;10.90;67.31
78745;BME280;68064;53.100;8.824;2023-04-24T03:58:52;99949.38;;;10.96;66.34
78745;BME280;68064;53.100;8.824;2023-04-24T03:59:55;99956.25;;;10.98;67.25
78745;BME280;68064;53.100;8.824;2023-04-24T04:01:01;99957.69;;;10.89;68.67
78745;BME280;68064;53.100;8.824;2023-04-24T04:02:05;99949.22;;;10.90;67.51
78745;BME280;68064;53.100;8.824;2023-04-24T04:03:06;99946.66;;;10.90;67.37
78745;BME280;68064;53.100;8.824;2023-04-24T04:04:07;99956.97;;;10.93;66.99
78745;BME280;68064;53.100;8.824;2023-04-24T04:05:08;99954.16;;;10.84;70.23
78745;BME280;68064;53.100;8.824;2023-04-24T04:06:10;99948.97;;;10.81;68.29
78745;BME280;68064;53.100;8.824;2023-04-24T04:07:14;99952.47;;;10.84;70.29
78745;BME280;68064;53.100;8.824;2023-04-24T04:08:15;99952.56;;;10.87;67.80
78745;BME280;68064;53.100;8.824;2023-04-24T04:09:16;99946.56;;;10.87;66.86
78745;BME280;68064;53.100;8.824;2023-04-24T04:10:17;99954.41;;;10.93;67.94
78745;BME280;68064;53.100;8.824;2023-04-24T04:11:18;99952.75;;;10.95;66.78
78745;BME280;68064;53.100;8.824;2023-04-24T04:12:19;99952.72;;;10.93;67.31
78745;BME280;68064;53.100;8.824;2023-04-24T04:13:22;99944.88;;;10.87;69.49
78745;BME280;68064;53.100;8.824;2023-04-24T04:14:23;99954.19;;;10.85;67.63
78745;BME280;68064;53.100;8.824;2023-04-24T04:15:24;99949.16;;;10.88;67.46
78745;BME280;68064;53.100;8.824;2023-04-24T04:16:25;99949.84;;;10.83;68.90
78745;BME280;68064;53.100;8.824;2023-04-24T04:17:26;99956.88;;;10.90;66.24
78745;BME280;68064;53.100;8.824;2023-04-24T04:18:29;99945.69;;;10.86;67.39
78745;BME280;68064;53.100;8.824;2023-04-24T04:19:31;99945.59;;;10.83;67.91
78745;BME280;68064;53.100;8.824;2023-04-24T04:20:33;99946.56;;;10.87;66.74
78745;BME280;68064;53.100;8.824;2023-04-24T04:21:35;99958.66;;;10.92;65.87
78745;BME280;68064;53.100;8.824;2023-04-24T04:22:39;99956.97;;;10.93;66.86
78745;BME280;68064;53.100;8.824;2023-04-24T04:23:40;99956.97;;;10.93;66.65
78745;BME280;68064;53.100;8.824;2023-04-24T04:24:41;99961.19;;;10.91;67.06
78745;BME280;68064;53.100;8.824;2023-04-24T04:25:43;99945.59;;;10.83;68.14
78745;BME280;68064;53.100;8.824;2023-04-24T04:26:44;99964.44;;;10.85;68.65
78745;BME280;68064;53.100;8.824;2023-04-24T04:27:46;99956.88;;;10.90;66.49
78745;BME280;68064;53.100;8.824;2023-04-24T04:28:49;99962.88;;;10.90;66.07
78745;BME280;68064;53.100;8.824;2023-04-24T04:29:53;99956.09;;;10.92;66.93
78745;BME280;68064;53.100;8.824;2023-04-24T04:30:54;99956.84;;;10.88;67.01
78745;BME280;68064;53.100;8.824;2023-04-24T04:31:55;99949.84;;;10.83;66.39
78745;BME280;68064;53.100;8.824;2023-04-24T04:32:56;99956.81;;;10.87;67.42
78745;BME280;68064;53.100;8.824;2023-04-24T04:33:58;99965.28;;;10.84;66.47
78745;BME280;68064;53.100;8.824;2023-04-24T04:34:59;99951.63;;;10.85;67.79
78745;BME280;68064;53.100;8.824;2023-04-24T04:36:00;99951.59;;;10.84;66.18
78745;BME280;68064;53.100;8.824;2023-04-24T04:37:02;99953.44;;;10.88;66.72
78745;BME280;68064;53.100;8.824;2023-04-24T04:38:03;99962.72;;;10.84;67.91
78745;BME280;68064;53.100;8.824;2023-04-24T04:39:04;99942.06;;;10.78;67.72
78745;BME280;68064;53.100;8.824;2023-04-24T04:40:07;99958.56;;;10.88;66.29
78745;BME280;68064;53.100;8.824;2023-04-24T04:41:08;99959.47;;;10.91;66.21
78745;BME280;68064;53.100;8.824;2023-04-24T04:42:10;99962.00;;;10.90;66.31
78745;BME280;68064;53.100;8.824;2023-04-24T04:43:11;99950.81;;;10.86;66.75
78745;BME280;68064;53.100;8.824;2023-04-24T04:44:14;99961.84;;;10.84;66.47
78745;BME280;68064;53.100;8.824;2023-04-24T04:45:15;99965.31;;;10.86;66.46
78745;BME280;68064;53.100;8.824;2023-04-24T04:46:16;99961.88;;;10.85;66.27
78745;BME280;68064;53.100;8.824;2023-04-24T04:47:20;99965.34;;;10.87;66.65
78745;BME280;68064;53.100;8.824;2023-04-24T04:48:22;99956.63;;;10.81;67.80
78745;BME280;68064;53.100;8.824;2023-04-24T04:49:23;99962.56;;;10.80;68.34
78745;BME280;68064;53.100;8.824;2023-04-24T04:50:24;99957.53;;;10.83;66.47
78745;BME280;68064;53.100;8.824;2023-04-24T04:51:27;99964.41;;;10.84;67.31
78745;BME280;68064;53.100;8.824;2023-04-24T04:52:28;99964.31;;;10.81;69.24
78745;BME280;68064;53.100;8.824;2023-04-24T04:53:29;99962.50;;;10.77;68.12
78745;BME280;68064;53.100;8.824;2023-04-24T04:54:30;99960.19;;;10.86;67.21
78745;BME280;68064;53.100;8.824;2023-04-24T04:55:31;99965.22;;;10.83;67.66
78745;BME280;68064;53.100;8.824;2023-04-24T04:56:33;99961.59;;;10.75;68.31
78745;BME280;68064;53.100;8.824;2023-04-24T04:57:34;99972.03;;;10.82;67.51
78745;BME280;68064;53.100;8.824;2023-04-24T04:58:36;99966.19;;;10.86;68.57
78745;BME280;68064;53.100;8.824;2023-04-24T04:59:38;99968.72;;;10.86;67.22
78745;BME280;68064;53.100;8.824;2023-04-24T05:00:39;99974.00;;;10.91;66.10
78745;BME280;68064;53.100;8.824;2023-04-24T05:01:41;99964.50;;;10.88;67.12
78745;BME280;68064;53.100;8.824;2023-04-24T05:02:42;99959.19;;;10.81;67.46
78745;BME280;68064;53.100;8.824;2023-04-24T05:03:43;99952.41;;;10.81;66.05
78745;BME280;68064;53.100;8.824;2023-04-24T05:04:45;99979.78;;;10.85;69.24
78745;BME280;68064;53.100;8.824;2023-04-24T05:05:47;99962.66;;;10.83;67.31
78745;BME280;68064;53.100;8.824;2023-04-24T05:06:48;99967.75;;;10.81;69.08
78745;BME280;68064;53.100;8.824;2023-04-24T05:07:49;99950.59;;;10.79;66.12
78745;BME280;68064;53.100;8.824;2023-04-24T05:08:50;99973.22;;;10.93;66.05
78745;BME280;68064;53.100;8.824;2023-04-24T05:09:51;99951.53;;;10.81;67.48
78745;BME280;68064;53.100;8.824;2023-04-24T05:10:52;99963.38;;;10.79;69.02
78745;BME280;68064;53.100;8.824;2023-04-24T05:11:53;99967.84;;;10.84;67.05
78745;BME280;68064;53.100;8.824;2023-04-24T05:12:54;99966.34;;;10.92;66.37
78745;BME280;68064;53.100;8.824;2023-04-24T05:13:55;99971.47;;;10.92;66.27
78745;BME280;68064;53.100;8.824;2023-04-24T05:14:57;99966.34;;;10.92;66.77
78745;BME280;68064;53.100;8.824;2023-04-24T05:15:58;99956.75;;;10.85;66.50
78745;BME280;68064;53.100;8.824;2023-04-24T05:16:59;99965.56;;;10.95;65.88
78745;BME280;68064;53.100;8.824;2023-04-24T05:18:00;99966.41;;;10.95;65.77
78745;BME280;68064;53.100;8.824;2023-04-24T05:19:02;99960.25;;;10.89;69.09
78745;BME280;68064;53.100;8.824;2023-04-24T05:20:04;99969.56;;;10.85;68.22
78745;BME280;68064;53.100;8.824;2023-04-24T05:21:05;99963.63;;;10.86;66.92
78745;BME280;68064;53.100;8.824;2023-04-24T05:22:06;99955.13;;;10.87;66.75
78745;BME280;68064;53.100;8.824;2023-04-24T05:23:07;99964.72;;;10.94;66.79
78745;BME280;68064;53.100;8.824;2023-04-24T05:24:08;99958.63;;;10.91;66.63
78745;BME280;68064;53.100;8.824;2023-04-24T05:25:09;99971.53;;;10.95;65.79
78745;BME280;68064;53.100;8.824;2023-04-24T05:26:10;99963.06;;;10.98;65.98
78745;BME280;68064;53.100;8.824;2023-04-24T05:27:11;99975.78;;;10.95;66.60
78745;BME280;68064;53.100;8.824;2023-04-24T05:28:13;99973.38;;;10.99;66.27